Latest Weather Observations for Winton

IDQ60801

Issued at 10:32 pm EST Monday 2 May 2016 (issued every 30 minutes, with the page automatically refreshed every 10 minutes)

About weather observations | Map of weather stations | Latest weather observations for QLD | Other Formats
Station Details ID: 037039 Name: WINTON AIRPORT Lat: -22.36 Lon: 143.08 Height: 192.2 m
Data from the previous 72 hours. | See also: Recent months at Winton
Date/Time
EST
Temp
°C
App
Temp
°C
Dew
Point
Rel
Hum
%
Delta-T
°C
Wind Press
QNH
hPa
Press
MSL
hPa
Rain
since 9 am
mm
Dir
 
Spd
km/h
Gust
km/h
Spd
kts
Gust
kts
02/10:30pm 27.3 25.3 15.0 47 7.5 SSE 19 28 10 15 1016.2 1015.5 0.0
02/10:00pm 27.4 24.9 15.1 47 7.5 SSE 22 30 12 16 1016.2 1015.5 0.0
02/09:30pm 27.3 25.4 15.7 49 7.2 SE 20 28 11 15 1016.0 1015.3 0.0
02/09:00pm 27.6 25.0 15.9 49 7.2 SSE 24 37 13 20 1015.7 1015.1 0.0
02/08:30pm 28.1 24.6 15.4 46 7.8 SSE 28 41 15 22 1015.2 1014.6 0.0
02/08:00pm 28.9 25.7 15.4 44 8.3 SSE 26 37 14 20 1014.9 1014.3 0.0
02/07:30pm 29.8 26.0 14.7 39 9.3 SSE 28 37 15 20 1014.0 1013.4 0.0
02/07:00pm 30.8 27.5 14.0 36 10.2 S 24 37 13 20 1013.4 1012.7 0.0
02/06:30pm 31.9 27.1 14.1 34 10.9 S 32 43 17 23 1012.6 1011.9 0.0
02/06:07pm 33.8 31.4 12.7 27 12.7 SW 17 39 9 21 1012.3 1011.6 0.0
02/06:00pm 34.6 33.8 12.9 27 13.2 SW 9 11 5 6 1012.0 1011.3 0.0
02/05:30pm 35.2 34.0 12.8 26 13.6 W 11 17 6 9 1011.7 1011.0 0.0
02/05:00pm 36.4 34.9 13.2 25 14.3 W 13 19 7 10 1011.4 1010.7 0.0
02/04:30pm 36.1 35.1 12.3 24 14.4 SW 9 19 5 10 1011.3 1010.6 0.0
02/04:00pm 36.8 35.2 12.9 24 14.6 WSW 13 22 7 12 1011.4 1010.7 0.0
02/03:30pm 36.2 35.2 12.4 24 14.4 SW 9 17 5 9 1011.2 1010.5 0.0
02/03:00pm 36.4 36.1 12.6 24 14.5 WSW 6 20 3 11 1011.3 1010.6 0.0
02/02:30pm 36.3 35.2 13.1 25 14.2 NW 11 26 6 14 1011.5 1010.8 0.0
02/02:00pm 35.9 35.6 13.4 26 13.8 NW 7 17 4 9 1011.9 1011.2 0.0
02/01:30pm 36.6 36.2 14.0 26 14.1 N 9 19 5 10 1012.2 1011.5 0.0
02/01:00pm 35.6 35.2 13.1 25 13.8 NNW 7 19 4 10 1012.7 1012.0 0.0
02/12:30pm 34.9 33.8 13.1 27 13.3 NW 11 20 6 11 1013.0 1012.3 0.0
02/12:00pm 35.1 33.7 14.4 29 12.9 N 15 24 8 13 1013.5 1012.9 0.0
02/11:30am 35.2 33.8 14.5 29 12.9 N 15 22 8 12 1014.0 1013.4 0.0
02/11:00am 34.6 32.6 15.0 31 12.3 NNW 19 26 10 14 1014.2 1013.6 0.0
02/10:30am 34.0 32.0 15.5 33 11.6 N 20 26 11 14 1014.5 1013.9 0.0
02/10:00am 33.4 32.1 15.8 34 11.1 N 17 24 9 13 1014.8 1014.2 0.0
02/09:30am 31.4 30.3 15.4 38 10.0 N 15 24 8 13 1014.8 1014.2 0.0
02/09:00am 30.0 29.2 16.1 43 8.7 N 15 20 8 11 1014.9 1014.3 0.0
02/08:30am 27.1 25.8 13.8 44 8.0 NNE 13 17 7 9 1014.9 1014.3 0.0
02/08:00am 24.5 23.2 12.5 47 6.9 NNE 11 15 6 8 1014.7 1014.1 0.0
02/07:30am 22.0 21.1 11.4 51 6.0 NE 7 9 4 5 1014.4 1013.8 0.0
02/07:00am 20.5 18.7 10.9 54 5.3 NE 11 11 6 6 1014.0 1013.4 0.0
02/06:30am 20.6 19.1 10.7 53 5.4 NE 9 11 5 6 1013.7 1013.1 0.0
02/06:00am 20.7 19.2 10.5 52 5.6 NE 9 11 5 6 1013.4 1012.7 0.0
02/05:30am 20.7 18.8 10.5 52 5.6 NE 11 13 6 7 1013.2 1012.5 0.0
02/05:00am 20.4 19.2 10.2 52 5.6 NE 7 9 4 5 1013.1 1012.4 0.0
02/04:30am 20.6 19.4 10.4 52 5.6 ENE 7 7 4 4 1013.0 1012.3 0.0
02/04:00am 21.1 19.5 10.3 50 5.9 ENE 9 9 5 5 1012.8 1012.1 0.0
02/03:30am 22.1 20.6 10.6 48 6.4 NE 9 11 5 6 1012.7 1012.0 0.0
02/03:00am 22.1 21.0 10.6 48 6.4 ENE 7 9 4 5 1012.8 1012.1 0.0
02/02:30am 23.0 21.6 10.8 46 6.8 NE 9 9 5 5 1012.8 1012.1 0.0
02/02:00am 22.9 21.4 10.7 46 6.8 NE 9 11 5 6 1012.9 1012.2 0.0
02/01:30am 22.7 21.6 10.8 47 6.6 NE 7 9 4 5 1013.3 1012.6 0.0
02/01:00am 23.5 22.7 10.9 45 7.1 ENE 6 6 3 3 1013.4 1012.7 0.0
02/12:30am 23.9 23.1 10.9 44 7.3 ENE 6 6 3 3 1013.7 1013.1 0.0
02/12:00am 24.6 23.8 11.2 43 7.6 NE 6 7 3 4 1013.9 1013.3 0.0
 
Date/Time
EST
Temp
°C
App
Temp
°C
Dew
Point
Rel
Hum
%
Delta-T
°C
Wind Press
QNH
hPa
Press
MSL
hPa
Rain
since 9 am
mm
Dir
 
Spd
km/h
Gust
km/h
Spd
kts
Gust
kts
01/11:30pm 24.9 24.2 11.5 43 7.6 E 6 6 3 3 1014.1 1013.5 0.0
01/11:00pm 25.6 24.6 11.0 40 8.3 ENE 7 9 4 5 1014.3 1013.7 0.0
01/10:30pm 26.2 25.4 11.2 39 8.6 ENE 6 6 3 3 1014.5 1013.9 0.0
01/10:00pm 26.5 25.4 10.6 37 9.0 NE 7 9 4 5 1014.7 1014.1 0.0
01/09:30pm 27.4 26.3 10.6 35 9.6 E 7 9 4 5 1014.8 1014.2 0.0
01/09:00pm 28.1 27.9 10.3 33 10.1 NE 2 6 1 3 1014.8 1014.2 0.0
01/08:30pm 28.4 27.9 10.6 33 10.2 ENE 4 6 2 3 1014.6 1014.0 0.0
01/08:00pm 28.9 27.6 10.1 31 10.7 ENE 7 9 4 5 1014.3 1013.7 0.0
01/07:30pm 30.6 29.8 11.1 30 11.3 ENE 6 9 3 5 1013.9 1013.3 0.0
01/07:00pm 31.8 31.5 11.6 29 11.9 NNE 4 6 2 3 1013.5 1012.9 0.0
01/06:30pm 32.8 32.3 10.8 26 12.9 E 4 4 2 2 1013.2 1012.5 0.0
01/06:00pm 34.0 34.0 11.2 25 13.5 E 2 6 1 3 1013.0 1012.3 0.0
01/05:30pm 35.6 35.3 11.3 23 14.5 NW 4 7 2 4 1012.7 1012.0 0.0
01/05:00pm 35.7 35.8 11.4 23 14.5 S 2 6 1 3 1012.5 1011.8 0.0
01/04:30pm 35.8 34.9 11.4 23 14.6 SE 7 13 4 7 1012.4 1011.7 0.0
01/04:00pm 36.2 34.5 11.1 22 14.9 ESE 11 19 6 10 1012.3 1011.6 0.0
01/03:30pm 36.7 36.2 12.2 23 14.9 SSW 6 9 3 5 1012.3 1011.6 0.0
01/03:00pm 35.6 34.9 11.9 24 14.2 WNW 7 13 4 7 1012.2 1011.5 0.0
01/02:30pm 36.4 36.1 12.6 24 14.5 WSW 6 7 3 4 1012.5 1011.8 0.0
01/02:00pm 35.7 35.2 12.6 25 14.0 N 7 13 4 7 1012.8 1012.1 0.0
01/01:30pm 35.8 36.5 14.4 27 13.3 WNW 4 7 2 4 1013.3 1012.6 0.0
01/01:00pm 34.4 34.8 13.8 29 12.7 W 4 9 2 5 1013.7 1013.1 0.0
01/12:30pm 35.0 35.0 14.3 29 12.9 NE 7 15 4 8 1014.2 1013.6 0.0
01/12:00pm 34.4 34.0 15.3 31 12.0 NNW 11 20 6 11 1014.7 1014.1 0.0
01/11:30am 34.4 33.9 15.8 33 11.8 N 13 20 7 11 1015.1 1014.5 0.0
01/11:00am 33.6 32.8 16.0 34 11.1 N 15 22 8 12 1015.7 1015.1 0.0
01/10:30am 32.5 30.9 15.9 36 10.5 NNE 19 28 10 15 1016.0 1015.3 0.0
01/10:00am 31.8 30.4 16.5 39 9.7 NNE 19 24 10 13 1016.3 1015.6 0.0
01/09:30am 30.9 30.0 16.9 43 8.9 NNE 17 22 9 12 1016.4 1015.4 0.0
01/09:00am 29.3 27.7 16.5 46 8.0 NNE 20 28 11 15 1016.2 1015.2 0.0
01/08:30am 27.7 26.6 16.3 49 7.1 NNE 17 24 9 13 1015.8 1014.8 0.0
01/08:00am 25.6 24.4 15.0 52 6.4 NNE 15 20 8 11 1015.6 1014.6 0.0
01/07:30am 23.6 22.2 13.5 53 5.9 ENE 13 15 7 8 1015.2 1014.2 0.0
01/07:00am 22.6 21.4 12.8 54 5.6 NE 11 15 6 8 1015.4 1014.4 0.0
01/06:30am 23.2 22.4 12.8 52 6.0 NNE 9 13 5 7 1015.2 1014.2 0.0
01/06:00am 23.9 22.4 13.2 51 6.2 NNE 13 17 7 9 1014.6 1013.6 0.0
01/05:30am 23.7 22.5 12.7 50 6.4 NE 11 13 6 7 1014.5 1013.5 0.0
01/05:00am 24.4 23.3 13.0 49 6.7 NE 11 13 6 7 1014.4 1013.4 0.0
01/04:30am 24.6 23.4 12.9 48 6.8 NE 11 13 6 7 1014.2 1013.2 0.0
01/04:00am 25.9 24.8 13.1 45 7.5 NE 11 13 6 7 1014.2 1013.2 0.0
01/03:30am 26.7 25.2 13.1 43 8.0 ENE 13 17 7 9 1014.1 1013.1 0.0
01/03:00am 26.3 25.1 12.7 43 8.0 E 11 13 6 7 1014.3 1013.3 0.0
01/02:30am 25.8 24.5 12.6 44 7.7 E 11 13 6 7 1014.4 1013.4 0.0
01/02:00am 25.3 24.0 12.5 45 7.4 E 11 13 6 7 1014.5 1013.5 0.0
01/01:30am 25.1 24.0 12.0 44 7.5 E 9 11 5 6 1014.7 1013.7 0.0
01/01:00am 25.2 24.5 12.1 44 7.6 ESE 7 9 4 5 1014.9 1013.9 0.0
01/12:30am 26.0 24.6 12.1 42 8.0 E 11 15 6 8 1014.9 1013.9 0.0
01/12:00am 26.5 25.1 12.2 41 8.3 ESE 11 13 6 7 1015.0 1014.0 0.0
 
Date/Time
EST
Temp
°C
App
Temp
°C
Dew
Point
Rel
Hum
%
Delta-T
°C
Wind Press
QNH
hPa
Press
MSL
hPa
Rain
since 9 am
mm
Dir
 
Spd
km/h
Gust
km/h
Spd
kts
Gust
kts
30/11:30pm 26.9 25.5 12.2 40 8.6 ENE 11 15 6 8 1015.0 1014.0 0.0
30/11:00pm 27.6 26.9 12.0 38 9.1 ESE 7 9 4 5 1015.0 1014.0 0.0
30/10:30pm 28.8 27.4 12.2 35 9.7 ENE 11 15 6 8 1014.9 1013.9 0.0
30/10:00pm 29.5 28.2 12.4 35 10.1 ENE 11 13 6 7 1014.9 1013.9 0.0
30/09:30pm 29.6 28.3 12.5 35 10.1 ENE 11 15 6 8 1014.8 1013.8 0.0
30/09:00pm 29.9 29.1 12.8 35 10.2 ENE 9 13 5 7 1014.8 1013.8 0.0
30/08:30pm 30.1 28.8 12.5 34 10.4 ENE 11 15 6 8 1014.6 1013.6 0.0
30/08:00pm 30.3 29.1 12.7 34 10.5 E 11 13 6 7 1014.3 1013.3 0.0
30/07:30pm 30.7 29.6 13.0 33 10.6 E 11 11 6 6 1013.9 1012.9 0.0
30/07:00pm 31.0 29.9 11.9 31 11.3 E 9 9 5 5 1013.6 1012.6 0.0
30/06:30pm 31.5 30.9 11.8 30 11.6 E 6 6 3 3 1013.2 1012.2 0.0
30/06:00pm 33.2 32.0 11.7 27 12.8 E 9 13 5 7 1013.0 1012.0 0.0
30/05:30pm 34.2 33.7 12.0 26 13.3 NE 6 15 3 8 1012.9 1011.9 0.0
30/05:00pm 34.3 33.6 12.0 25 13.4 E 7 15 4 8 1012.7 1011.7 0.0
30/04:30pm 34.1 33.9 11.9 26 13.3 NE 4 7 2 4 1012.7 1011.7 0.0
30/04:00pm 34.3 33.0 11.4 25 13.6 ESE 9 15 5 8 1012.6 1011.6 0.0
30/03:30pm 35.8 35.1 12.1 24 14.3 NE 7 17 4 9 1012.5 1011.5 0.0
30/03:00pm 34.7 34.1 12.4 26 13.5 ESE 7 15 4 8 1012.7 1011.7 0.0
30/02:30pm 35.3 35.5 12.9 26 13.6 SSE 4 11 2 6 1012.9 1011.9 0.0
30/02:00pm 34.1 33.1 12.4 26 13.1 NE 9 19 5 10 1013.2 1012.2 0.0
30/01:30pm 35.4 34.4 14.6 28 13.0 NNE 13 22 7 12 1013.8 1012.8 0.0
30/01:00pm 33.8 33.3 14.8 32 11.8 NNE 11 19 6 10 1014.2 1013.2 0.0
30/12:30pm 33.8 33.6 15.7 33 11.4 NE 11 20 6 11 1014.8 1013.8 0.0
30/12:00pm 33.7 33.2 17.0 37 10.7 NNE 15 20 8 11 1015.4 1014.4 0.0
30/11:30am 32.5 31.2 16.8 39 10.0 NNE 19 28 10 15 1016.0 1015.0 0.0
30/11:00am 32.0 30.0 17.5 42 9.3 NNE 24 30 13 16 1016.3 1015.3 0.0
30/10:30am 31.1 28.9 17.8 45 8.6 NNE 26 32 14 17 1016.7 1015.7 0.0
30/10:00am 30.6 28.3 17.7 46 8.3 NE 26 33 14 18 1017.0 1016.0 0.0
30/09:30am 29.0 26.2 17.2 49 7.5 NE 28 33 15 18 1017.0 1016.0 0.0
30/09:00am 28.6 26.5 18.1 53 6.7 NE 26 33 14 18 1017.0 1016.0 0.0
30/08:30am 27.0 25.3 17.2 55 6.2 NE 22 32 12 17 1016.9 1015.9 0.0
30/08:00am 25.9 24.6 16.7 57 5.7 NE 19 24 10 13 1016.8 1015.8 0.0
30/07:30am 24.1 23.3 16.1 61 4.9 NE 15 19 8 10 1016.6 1015.6 0.0
30/07:00am 22.8 22.7 15.9 65 4.2 NE 11 15 6 8 1016.3 1015.3 0.0
30/06:30am 22.4 22.4 15.3 64 4.3 NE 9 9 5 5 1016.0 1015.0 0.0
30/06:00am 23.1 22.8 15.4 62 4.6 NE 11 15 6 8 1015.6 1014.6 0.0
30/05:30am 23.6 23.7 15.4 60 5.0 ENE 9 13 5 7 1015.2 1014.2 0.0
30/05:00am 24.3 23.6 15.5 58 5.3 ENE 13 19 7 10 1015.0 1014.0 0.0
30/04:30am 24.6 23.2 15.5 57 5.5 ENE 17 22 9 12 1014.8 1013.8 0.0
30/04:00am 24.9 23.4 15.2 54 5.9 ENE 17 22 9 12 1014.6 1013.6 0.0
30/03:30am 24.3 23.8 15.0 56 5.6 ENE 11 17 6 9 1014.7 1013.7 0.0
30/03:00am 24.2 23.2 14.6 55 5.7 E 13 17 7 9 1014.7 1013.7 0.0
30/02:30am 22.7 21.6 12.0 50 6.1 ESE 9 13 5 7 1014.9 1013.9 0.0
30/02:00am 22.8 21.7 11.8 50 6.2 ESE 9 11 5 6 1015.1 1014.1 0.0
30/01:30am 23.9 23.2 11.9 47 6.9 ESE 7 9 4 5 1015.2 1014.2 0.0
30/01:00am 24.4 23.3 12.0 46 7.1 ESE 9 13 5 7 1015.3 1014.3 0.0
30/12:30am 24.8 24.0 11.7 44 7.5 E 7 7 4 4 1015.4 1014.4 0.0
30/12:00am 25.4 24.7 11.9 43 7.8 E 7 7 4 4 1015.6 1014.6 0.0
 
Date/Time
EST
Temp
°C
App
Temp
°C
Dew
Point
Rel
Hum
%
Delta-T
°C
Wind Press
QNH
hPa
Press
MSL
hPa
Rain
since 9 am
mm
Dir
 
Spd
km/h
Gust
km/h
Spd
kts
Gust
kts
29/11:30pm 25.6 25.0 12.4 43 7.7 E 7 9 4 5 1016.0 1015.0 0.0
29/11:00pm 25.1 24.4 12.0 44 7.5 ESE 7 9 4 5 1016.1 1015.1 0.0

Other Formats:

Comma delimited format used in spreadsheet applications
http://www.bom.gov.au/fwo/IDQ60801/IDQ60801.94342.axf

JavaScript Object Notation format (JSON) in row-major order
http://www.bom.gov.au/fwo/IDQ60801/IDQ60801.94342.json